Time;durP1;ratioP1;P1;durP2;ratioP2;P2;SDS_P1;SDS_P2;PMS_P1;PMS_P2;Temp;Humidity;BMP_temperature;BMP_pressure;BME280_temperature;BME280_humidity;BME280_pressure;Samples;Min_cycle;Max_cycle;Signal;HPM_P1;HPM_P2
2021/10/31 00:01:13;;;;;;;28.58;24.70;;;9.10;83.70;;;7.29;96.37;95632.84;5024927;28;20034;-68
2021/10/31 00:03:39;;;;;;;28.00;25.10;;;9.20;83.80;;;7.30;96.47;95635.25;5011606;28;20528;-68
2021/10/31 00:06:05;;;;;;;31.17;26.50;;;9.10;83.70;;;7.30;96.48;95635.25;5026127;28;20033;-69
2021/10/31 00:08:31;;;;;;;27.88;24.73;;;9.20;83.80;;;7.30;96.26;95642.31;5026526;28;20156;-68
2021/10/31 00:10:57;;;;;;;27.88;24.83;;;9.10;83.80;;;7.27;96.04;95659.16;5024924;28;20044;-68
2021/10/31 00:13:24;;;;;;;29.35;26.15;;;9.10;83.50;;;7.22;95.84;95656.25;5027811;28;20405;-68
2021/10/31 00:15:49;;;;;;;31.75;28.35;;;9.10;83.60;;;7.21;96.44;95654.63;5004340;28;20034;-68
2021/10/31 00:18:15;;;;;;;30.73;27.40;;;9.10;83.70;;;7.18;96.04;95655.00;5030099;28;20492;-68
2021/10/31 00:20:41;;;;;;;31.35;27.88;;;8.90;83.90;;;7.14;96.30;95653.72;5025200;28;20077;-67
2021/10/31 00:23:08;;;;;;;31.02;27.20;;;9.00;83.90;;;7.12;96.67;95660.13;5006891;28;20116;-67
2021/10/31 00:25:34;;;;;;;30.33;27.00;;;8.90;83.90;;;7.07;96.59;95660.66;5034460;28;20026;-67
2021/10/31 00:27:59;;;;;;;29.98;26.77;;;8.80;84.20;;;7.06;96.47;95656.44;5014147;28;20045;-68
2021/10/31 00:30:25;;;;;;;31.02;27.33;;;8.80;84.20;;;7.02;96.54;95657.78;5012972;28;20079;-67
2021/10/31 00:32:51;;;;;;;30.60;27.35;;;8.80;84.00;;;6.97;96.29;95673.16;5029476;28;20045;-67
2021/10/31 00:35:17;;;;;;;32.05;28.65;;;8.60;84.80;;;6.91;97.31;95671.28;5026369;28;20092;-67
2021/10/31 00:37:42;;;;;;;33.65;29.65;;;8.60;85.20;;;6.83;96.96;95690.47;5029085;28;20069;-67
2021/10/31 00:40:09;;;;;;;35.40;29.27;;;8.40;85.80;;;6.81;97.67;95686.41;5026586;28;20033;-68
2021/10/31 00:42:35;;;;;;;33.50;29.90;;;8.40;86.20;;;6.82;98.05;95686.22;5028051;28;20049;-67
2021/10/31 00:45:01;;;;;;;32.90;29.33;;;8.50;86.10;;;6.83;97.87;95690.47;5012495;28;20041;-67
2021/10/31 00:47:26;;;;;;;33.47;29.88;;;8.50;86.00;;;6.82;98.17;95677.56;5029080;28;20030;-67
2021/10/31 00:49:52;;;;;;;32.10;28.73;;;8.60;86.10;;;6.83;98.49;95687.84;5027105;28;20056;-67
2021/10/31 00:52:18;;;;;;;34.55;29.85;;;8.60;86.10;;;6.84;99.00;95678.19;5012590;28;20026;-67
2021/10/31 00:54:44;;;;;;;33.50;28.35;;;8.60;86.20;;;6.84;98.59;95680.81;4996274;28;20135;-67
2021/10/31 00:57:10;;;;;;;33.15;28.30;;;8.60;86.00;;;6.86;98.54;95678.84;5011218;28;20053;-70
2021/10/31 00:59:36;;;;;;;32.05;27.85;;;8.70;85.90;;;6.89;98.93;95681.09;5010753;28;20520;-70
2021/10/31 01:02:07;;;;;;;30.85;27.52;;;8.70;85.40;;;6.88;98.71;95680.28;5012668;28;20082;-68
2021/10/31 01:04:33;;;;;;;31.08;27.75;;;8.70;85.00;;;6.89;98.37;95683.72;5023249;28;20111;-67
2021/10/31 01:07:03;;;;;;;29.63;26.40;;;8.70;84.80;;;6.89;97.95;95691.56;5011940;28;20087;-68
2021/10/31 01:10:07;;;;;;;31.15;26.52;;;8.80;84.50;;;6.90;98.09;95687.94;5014327;28;20050;-67
2021/10/31 01:13:08;;;;;;;28.58;25.48;;;8.80;84.30;;;6.87;98.27;95690.91;5009900;28;20041;-67
2021/10/31 01:15:40;;;;;;;28.50;25.40;;;8.70;84.50;;;6.84;97.91;95684.25;5021364;28;20060;-66
2021/10/31 01:18:34;;;;;;;28.90;25.80;;;8.70;84.50;;;6.86;98.47;95681.44;5011825;28;20064;-67
2021/10/31 01:21:52;;;;;;;27.70;24.85;;;8.70;84.60;;;6.86;98.44;95671.00;5024732;28;20042;-67
2021/10/31 01:24:48;;;;;;;30.45;25.35;;;8.70;84.40;;;6.85;98.47;95669.38;5010921;28;20042;-67
2021/10/31 01:27:36;;;;;;;27.85;24.85;;;8.70;84.20;;;6.86;98.08;95665.75;5037281;28;20076;-67
2021/10/31 01:30:21;;;;;;;29.20;25.83;;;8.70;84.20;;;6.85;97.90;95657.09;5007236;28;20060;-67
2021/10/31 01:32:58;;;;;;;28.50;25.48;;;8.70;84.10;;;6.84;97.22;95659.91;5027639;28;20168;-68
2021/10/31 01:36:04;;;;;;;28.25;25.17;;;8.70;83.60;;;6.82;96.68;95659.28;5023394;28;20046;-67
2021/10/31 01:38:45;;;;;;;27.60;24.05;;;8.70;83.10;;;6.76;97.01;95666.81;5014694;28;20068;-67
2021/10/31 01:41:46;;;;;;;29.27;25.38;;;8.60;83.10;;;6.74;96.72;95670.59;5026785;28;20080;-67
2021/10/31 01:44:41;;;;;;;31.27;26.83;;;8.60;83.30;;;6.71;96.91;95679.59;5011887;28;20041;-67
2021/10/31 01:47:55;;;;;;;28.63;25.55;;;8.60;83.60;;;6.67;97.05;95678.31;5005902;28;20302;-67
2021/10/31 01:50:30;;;;;;;29.42;25.48;;;8.50;84.00;;;6.65;97.07;95674.25;5002065;28;20037;-67
2021/10/31 01:53:11;;;;;;;29.77;26.27;;;8.50;84.20;;;6.67;96.93;95687.97;5023831;28;20051;-67
2021/10/31 01:55:43;;;;;;;30.13;25.73;;;8.50;84.00;;;6.64;96.80;95688.31;4996530;28;20034;-67
2021/10/31 01:58:09;;;;;;;32.83;27.20;;;8.50;83.90;;;6.64;96.58;95693.53;5011995;28;20043;-67
2021/10/31 02:00:35;;;;;;;28.55;25.45;;;8.50;83.90;;;6.61;96.53;95686.88;5009582;28;20132;-67
2021/10/31 02:03:03;;;;;;;28.98;25.85;;;8.50;83.70;;;6.58;96.99;95679.38;4990216;28;20124;-67
2021/10/31 02:05:32;;;;;;;30.25;26.65;;;8.40;83.70;;;6.59;97.19;95691.44;5009368;28;20081;-66
2021/10/31 02:08:08;;;;;;;28.85;25.35;;;8.50;83.90;;;6.60;97.11;95690.47;5022002;28;20117;-67
2021/10/31 02:10:34;;;;;;;28.17;25.25;;;8.50;83.80;;;6.58;96.62;95683.78;4984612;28;20061;-67
2021/10/31 02:13:02;;;;;;;28.15;25.13;;;8.40;83.70;;;6.56;96.86;95681.31;4987737;28;20086;-67
2021/10/31 02:15:28;;;;;;;29.73;26.13;;;8.40;83.80;;;6.56;96.69;95685.75;4990746;28;20092;-67
2021/10/31 02:17:55;;;;;;;29.30;26.13;;;8.40;83.80;;;6.57;96.65;95687.41;5004960;28;20025;-67
2021/10/31 02:20:21;;;;;;;28.50;25.42;;;8.40;83.70;;;6.54;96.79;95678.06;5023484;28;20026;-67
2021/10/31 02:22:55;;;;;;;31.35;26.02;;;8.40;83.80;;;6.54;97.27;95683.28;4990742;28;20124;-67
2021/10/31 02:25:22;;;;;;;29.55;26.38;;;8.40;84.00;;;6.53;96.69;95675.63;5008434;28;20140;-67
2021/10/31 02:27:48;;;;;;;29.98;25.83;;;8.40;84.20;;;6.50;96.87;95671.56;5005008;28;20041;-67
2021/10/31 02:30:14;;;;;;;29.50;26.00;;;8.40;84.30;;;6.53;97.33;95676.44;5006967;28;20056;-66
2021/10/31 02:32:39;;;;;;;30.58;27.02;;;8.40;84.20;;;6.54;97.60;95677.25;5027947;28;20037;-67
2021/10/31 02:35:09;;;;;;;29.88;26.67;;;8.40;84.50;;;6.54;97.45;95672.03;5006447;28;20717;-67
2021/10/31 02:37:37;;;;;;;29.50;24.52;;;8.40;84.30;;;6.50;96.65;95671.56;5024862;28;20424;-67
2021/10/31 02:40:04;;;;;;;26.35;23.60;;;8.40;83.40;;;6.42;96.03;95669.03;5024517;28;21653;-67
2021/10/31 02:42:30;;;;;;;27.88;24.73;;;8.30;83.00;;;6.37;96.46;95666.94;4997000;28;20437;-67
2021/10/31 02:44:56;;;;;;;28.67;25.58;;;8.20;83.30;;;6.35;96.32;95660.28;5010000;28;20029;-67
2021/10/31 02:47:56;;;;;;;29.48;26.27;;;8.20;83.60;;;6.36;97.45;95670.53;5020242;28;20409;-67
2021/10/31 02:50:35;;;;;;;31.00;27.40;;;8.20;84.20;;;6.34;97.46;95666.47;5000374;28;20025;-67
2021/10/31 02:53:28;;;;;;;29.58;23.92;;;8.20;84.20;;;6.35;97.77;95673.34;4975474;28;20102;-67
2021/10/31 02:56:40;;;;;;;28.08;25.02;;;8.20;84.40;;;6.32;97.89;95673.66;5043384;28;20029;-67
2021/10/31 02:59:15;;;;;;;31.90;26.13;;;8.20;84.20;;;6.33;97.72;95685.72;5007054;28;20029;-67
2021/10/31 03:01:40;;;;;;;28.48;24.92;;;8.20;84.30;;;6.32;96.94;95679.69;5010735;28;20022;-66
2021/10/31 03:04:06;;;;;;;29.58;25.58;;;8.20;83.90;;;6.30;96.55;95686.06;5006350;28;20328;-67
2021/10/31 03:06:32;;;;;;;30.77;26.70;;;8.10;83.90;;;6.30;96.66;95699.13;4992293;28;20045;-66
2021/10/31 03:08:57;;;;;;;41.60;32.30;;;8.10;83.80;;;6.27;96.91;95696.88;5009642;28;20034;-67
2021/10/31 03:11:24;;;;;;;36.97;30.73;;;7.90;84.50;;;6.23;97.17;95691.19;5024614;28;20708;-66
2021/10/31 03:13:50;;;;;;;35.55;29.55;;;8.00;84.50;;;6.22;96.92;95691.34;5007449;28;20041;-67
2021/10/31 03:16:16;;;;;;;35.90;29.58;;;8.00;84.30;;;6.17;96.15;95691.88;5022674;28;20409;-67
2021/10/31 03:18:41;;;;;;;32.83;28.10;;;8.00;84.10;;;6.17;96.90;95701.50;5021163;28;20517;-67
2021/10/31 03:21:07;;;;;;;36.17;28.25;;;8.00;84.00;;;6.17;96.24;95701.50;5009642;28;20041;-68
2021/10/31 03:23:33;;;;;;;33.00;28.50;;;8.00;83.80;;;6.12;96.52;95696.81;5022891;28;20575;-66
2021/10/31 03:25:58;;;;;;;32.40;27.67;;;7.90;83.70;;;6.12;96.96;95707.25;5022559;28;20037;-67
2021/10/31 03:28:24;;;;;;;30.08;26.52;;;8.00;83.60;;;6.08;95.86;95700.72;5023142;28;20119;-67
2021/10/31 03:30:50;;;;;;;32.75;27.30;;;7.90;83.60;;;6.03;96.01;95689.97;5041104;28;20037;-67
2021/10/31 03:33:16;;;;;;;33.90;26.75;;;7.90;83.60;;;6.02;95.91;95688.34;5002388;28;20052;-67
2021/10/31 03:35:42;;;;;;;29.10;25.88;;;7.80;83.60;;;5.97;96.49;95696.69;5024104;28;20069;-67
2021/10/31 03:38:08;;;;;;;28.80;25.52;;;7.80;83.60;;;5.95;95.88;95698.66;5022594;28;20183;-67
2021/10/31 03:40:33;;;;;;;31.05;26.40;;;7.70;83.60;;;5.94;96.84;95698.84;5024858;28;20582;-67
2021/10/31 03:42:59;;;;;;;31.30;27.13;;;7.70;84.10;;;5.94;96.61;95685.78;5026111;28;20030;-67
2021/10/31 03:45:25;;;;;;;28.95;25.20;;;7.80;84.20;;;5.92;97.01;95691.19;5026093;28;20030;-67
2021/10/31 03:47:51;;;;;;;28.95;25.50;;;7.80;84.40;;;5.91;96.35;95697.38;5025153;28;20041;-67
2021/10/31 03:50:18;;;;;;;28.33;23.90;;;7.70;84.60;;;5.88;96.53;95682.00;5020144;28;20045;-67
2021/10/31 03:52:45;;;;;;;30.30;25.95;;;7.60;84.90;;;5.83;97.15;95687.75;5005021;28;20037;-67
2021/10/31 03:55:11;;;;;;;31.67;26.00;;;7.60;85.30;;;5.81;97.45;95676.66;5026313;28;20120;-67
2021/10/31 03:57:37;;;;;;;31.30;26.25;;;7.60;85.50;;;5.81;97.66;95674.06;5008835;28;20073;-67
2021/10/31 04:00:10;;;;;;;27.88;23.42;;;7.60;85.60;;;5.83;98.35;95669.47;4995700;28;20661;-67
2021/10/31 04:02:37;;;;;;;25.67;22.83;;;7.60;85.80;;;5.84;98.38;95675.50;5007806;28;20037;-66
2021/10/31 04:05:04;;;;;;;26.48;23.55;;;7.60;85.70;;;5.85;98.30;95677.13;5020099;28;20064;-67
2021/10/31 04:07:30;;;;;;;25.77;22.23;;;7.70;85.60;;;5.87;98.23;95680.38;5004565;28;20061;-66
2021/10/31 04:09:56;;;;;;;25.45;22.50;;;7.70;85.20;;;5.87;97.46;95680.38;5004151;28;20087;-67
2021/10/31 04:12:22;;;;;;;23.02;20.52;;;7.70;84.50;;;5.79;96.67;95664.78;5021047;28;20030;-68
2021/10/31 04:14:48;;;;;;;22.27;19.95;;;7.60;83.90;;;5.81;96.29;95671.44;5001049;28;20053;-71
2021/10/31 04:17:13;;;;;;;22.52;20.33;;;7.60;83.80;;;5.78;96.53;95666.56;5024116;28;20085;-69
2021/10/31 04:19:39;;;;;;;24.33;20.80;;;7.60;83.70;;;5.75;96.93;95669.53;5024684;28;20033;-67
2021/10/31 04:22:05;;;;;;;25.35;22.67;;;7.60;84.10;;;5.76;97.79;95683.38;5022335;28;20111;-67
2021/10/31 04:24:31;;;;;;;27.45;24.15;;;7.60;85.00;;;5.76;97.85;95662.50;5012419;28;20524;-67
2021/10/31 04:26:58;;;;;;;26.88;23.77;;;7.60;85.60;;;5.81;98.73;95670.63;5007898;28;20023;-67
2021/10/31 04:29:24;;;;;;;31.10;26.23;;;7.60;86.00;;;5.82;98.49;95672.25;5011942;28;20053;-66
2021/10/31 04:31:49;;;;;;;31.17;27.73;;;7.60;86.40;;;5.84;99.37;95659.84;5029868;28;20048;-66
2021/10/31 04:34:15;;;;;;;31.00;25.33;;;7.70;86.40;;;5.86;100.00;95652.66;5006816;28;20416;-67
2021/10/31 04:36:41;;;;;;;30.80;26.80;;;7.70;86.40;;;5.88;100.00;95661.13;5022859;28;20505;-67
2021/10/31 04:39:07;;;;;;;33.88;28.35;;;7.70;86.30;;;5.88;99.57;95650.69;5000597;28;20076;-66
2021/10/31 04:41:32;;;;;;;33.45;25.48;;;7.80;86.20;;;5.91;100.00;95665.25;5030187;28;20052;-66
2021/10/31 04:43:58;;;;;;;30.48;27.17;;;7.80;86.00;;;5.93;99.41;95664.09;4986051;28;20137;-67
2021/10/31 04:46:24;;;;;;;28.05;25.02;;;7.80;85.80;;;5.93;99.51;95658.06;5033583;28;20045;-67
2021/10/31 04:48:50;;;;;;;29.13;26.02;;;7.80;85.20;;;5.87;99.64;95649.06;5030228;28;20041;-67
2021/10/31 04:51:15;;;;;;;28.60;24.25;;;7.80;85.10;;;5.89;98.21;95641.91;5017730;28;20033;-67
2021/10/31 04:53:42;;;;;;;25.88;23.08;;;7.70;84.80;;;5.88;99.03;95637.63;4996321;28;20036;-68
2021/10/31 04:56:08;;;;;;;27.65;24.65;;;7.70;84.90;;;5.88;99.14;95650.69;5030555;28;20038;-67
2021/10/31 04:58:34;;;;;;;27.17;24.00;;;7.70;85.20;;;5.89;99.35;95649.72;5002431;28;20112;-67
2021/10/31 05:01:00;;;;;;;27.50;22.50;;;7.80;84.90;;;5.89;97.93;95643.69;5025641;28;20120;-67
2021/10/31 05:03:25;;;;;;;24.00;21.40;;;7.80;84.60;;;5.88;98.51;95640.25;5031057;28;20037;-70
2021/10/31 05:05:51;;;;;;;23.90;21.20;;;7.80;84.10;;;5.85;97.67;95635.38;5005694;28;20045;-67
2021/10/31 05:08:17;;;;;;;25.33;21.48;;;7.70;83.70;;;5.83;97.58;95632.94;5013949;28;20033;-67
2021/10/31 05:10:43;;;;;;;24.80;22.08;;;7.70;83.40;;;5.79;96.41;95623.81;5030746;28;20033;-66
2021/10/31 05:13:09;;;;;;;23.80;19.85;;;7.60;83.30;;;5.77;96.44;95622.38;5030421;28;20064;-67
2021/10/31 05:15:34;;;;;;;22.73;20.10;;;7.60;83.10;;;5.73;96.29;95623.69;5020599;28;20034;-64
2021/10/31 05:18:00;;;;;;;25.42;20.75;;;7.60;82.90;;;5.71;96.17;95628.28;5034412;28;20064;-64
2021/10/31 05:20:26;;;;;;;25.95;21.77;;;7.60;82.90;;;5.67;96.39;95622.59;5013104;28;20041;-64
2021/10/31 05:22:52;;;;;;;22.48;19.63;;;7.50;83.10;;;5.62;96.84;95619.66;5023809;28;20034;-64
2021/10/31 05:25:17;;;;;;;24.35;21.60;;;7.50;83.30;;;5.62;95.80;95621.47;5012244;28;20084;-66
2021/10/31 05:27:43;;;;;;;25.90;20.98;;;7.50;83.30;;;5.59;97.06;95617.41;5021483;28;20045;-66
2021/10/31 05:30:10;;;;;;;23.35;20.95;;;7.40;83.80;;;5.53;95.56;95618.91;4993746;28;20386;-68
2021/10/31 05:32:38;;;;;;;28.30;22.65;;;7.30;83.20;;;5.49;96.08;95625.44;5040891;28;20037;-70
2021/10/31 05:35:05;;;;;;;31.95;25.20;;;7.30;83.50;;;5.47;96.09;95639.63;4985060;28;20029;-64
2021/10/31 05:37:34;;;;;;;28.02;21.67;;;7.30;83.20;;;5.41;96.09;95630.66;5006477;28;20452;-63
2021/10/31 05:40:03;;;;;;;28.05;23.63;;;7.20;83.30;;;5.37;95.12;95631.97;5013914;28;20022;-67
2021/10/31 05:42:28;;;;;;;30.48;22.35;;;7.20;83.10;;;5.34;94.58;95637.53;5010233;28;20125;-65
2021/10/31 05:44:54;;;;;;;25.65;22.85;;;7.20;82.70;;;5.30;95.29;95640.66;5011019;28;20116;-66
2021/10/31 05:47:20;;;;;;;31.33;21.83;;;7.10;82.70;;;5.23;94.88;95624.88;5030047;28;20408;-70
2021/10/31 05:49:46;;;;;;;26.00;22.75;;;7.10;82.80;;;5.23;95.28;95624.88;5027670;28;20041;-65
2021/10/31 05:52:11;;;;;;;26.15;22.65;;;7.10;82.70;;;5.19;95.06;95628.78;5019772;28;20045;-65
2021/10/31 05:54:37;;;;;;;28.08;22.83;;;7.10;83.00;;;5.14;95.12;95612.81;5022200;28;20120;-66
2021/10/31 05:57:03;;;;;;;25.92;22.95;;;7.00;82.80;;;5.10;95.48;95616.75;5010145;28;20065;-68
2021/10/31 05:59:29;;;;;;;25.23;21.83;;;7.00;83.10;;;5.06;95.62;95612.84;5043258;28;20150;-67
2021/10/31 06:01:54;;;;;;;25.75;20.80;;;6.90;83.10;;;5.05;95.88;95611.22;5009047;28;20147;-69
2021/10/31 06:04:23;;;;;;;24.70;22.05;;;7.00;83.00;;;4.99;95.31;95609.28;5018082;28;20231;-65
2021/10/31 06:06:49;;;;;;;26.60;19.90;;;7.00;83.20;;;5.01;95.80;95615.16;5031117;28;20037;-64
2021/10/31 06:09:15;;;;;;;23.48;20.98;;;6.90;83.40;;;5.00;96.34;95619.56;5030070;28;20101;-66
2021/10/31 06:11:40;;;;;;;26.65;20.52;;;7.00;83.40;;;5.00;95.56;95622.16;5017760;28;20521;-64
2021/10/31 06:14:06;;;;;;;27.02;22.25;;;6.90;83.60;;;5.00;96.43;95613.53;5029248;28;20033;-65
2021/10/31 06:16:32;;;;;;;23.10;20.33;;;6.90;83.60;;;4.99;95.74;95611.91;5024989;28;20446;-64
2021/10/31 06:18:58;;;;;;;25.02;20.05;;;6.90;83.40;;;4.98;95.58;95618.06;5014988;28;20498;-68
2021/10/31 06:21:23;;;;;;;23.33;20.88;;;6.90;83.30;;;4.98;95.81;95620.66;5027673;28;20041;-66
2021/10/31 06:23:49;;;;;;;23.83;19.70;;;6.90;83.30;;;4.97;96.29;95613.84;5027489;28;20029;-67
2021/10/31 06:26:15;;;;;;;22.30;19.92;;;7.00;83.30;;;4.99;95.78;95617.13;4994052;28;20053;-67
2021/10/31 06:28:40;;;;;;;25.67;20.25;;;7.00;83.30;;;4.99;95.42;95614.50;5028276;28;20072;-68
2021/10/31 06:31:06;;;;;;;25.63;19.95;;;7.10;83.30;;;5.01;96.28;95615.16;5022804;28;20046;-67
2021/10/31 06:33:33;;;;;;;25.38;21.45;;;7.10;83.70;;;5.03;97.39;95619.22;4998127;28;20033;-67
2021/10/31 06:35:58;;;;;;;25.05;20.52;;;7.10;84.20;;;5.08;97.51;95629.13;5025092;28;20072;-67
2021/10/31 06:38:24;;;;;;;23.88;21.38;;;7.10;84.20;;;5.10;97.53;95625.38;5016605;28;20562;-67
2021/10/31 06:40:51;;;;;;;21.40;19.00;;;7.20;84.00;;;5.13;97.42;95613.81;5027993;28;20048;-67
2021/10/31 06:43:17;;;;;;;21.23;18.98;;;7.20;83.60;;;5.16;96.54;95609.06;5018782;28;20030;-67
2021/10/31 06:45:42;;;;;;;21.00;18.35;;;7.30;83.30;;;5.21;96.53;95612.00;5019422;28;20080;-67
2021/10/31 06:48:08;;;;;;;23.20;16.92;;;7.40;83.00;;;5.27;97.24;95615.72;5024345;28;20042;-68
2021/10/31 06:50:34;;;;;;;22.83;19.33;;;7.50;82.90;;;5.35;97.33;95610.47;5008452;28;20073;-68
2021/10/31 06:53:00;;;;;;;20.88;18.75;;;7.60;83.00;;;5.44;97.35;95617.31;5002132;28;20040;-68
2021/10/31 06:55:25;;;;;;;20.42;17.85;;;7.70;83.10;;;5.53;97.02;95611.06;5027518;28;20053;-67
2021/10/31 06:57:51;;;;;;;19.65;17.45;;;7.80;82.60;;;5.65;97.70;95608.06;5029293;28;20037;-66
2021/10/31 07:00:17;;;;;;;19.23;17.25;;;8.00;82.40;;;5.78;97.33;95605.72;5027920;28;20112;-66
2021/10/31 07:02:43;;;;;;;19.45;17.27;;;8.20;82.10;;;5.92;98.16;95602.44;5023207;28;20041;-70
2021/10/31 07:05:09;;;;;;;37.97;31.30;;;8.40;81.80;;;6.08;97.63;95604.94;5023188;28;20116;-65
2021/10/31 07:07:34;;;;;;;24.55;21.58;;;8.60;81.70;;;6.27;97.87;95608.06;5010780;28;20037;-65
2021/10/31 07:10:00;;;;;;;19.23;17.10;;;8.90;81.10;;;6.45;97.13;95605.97;5027911;28;20122;-67
2021/10/31 07:12:26;;;;;;;22.05;18.08;;;9.10;80.10;;;6.61;96.92;95611.09;4999027;28;20038;-68
2021/10/31 07:14:52;;;;;;;19.80;17.65;;;9.30;80.10;;;6.76;96.39;95598.03;5012580;28;20061;-67
2021/10/31 07:17:17;;;;;;;17.85;15.95;;;9.50;79.20;;;6.95;96.09;95599.31;5023750;28;20408;-67
2021/10/31 07:19:43;;;;;;;17.95;15.80;;;9.70;78.70;;;7.11;95.79;95601.78;5013513;28;20041;-67
2021/10/31 07:22:10;;;;;;;18.02;15.32;;;9.90;78.00;;;7.28;95.63;95598.00;5013778;28;20759;-67
2021/10/31 07:24:36;;;;;;;17.48;15.55;;;10.20;77.40;;;7.49;95.49;95599.09;5011169;28;20071;-68
2021/10/31 07:27:02;;;;;;;17.05;15.00;;;10.40;77.00;;;7.66;95.55;95590.03;5027957;28;20499;-67
2021/10/31 07:29:27;;;;;;;16.95;15.15;;;10.60;76.50;;;7.84;94.78;95592.25;5024519;28;20056;-67
2021/10/31 07:31:53;;;;;;;16.50;14.50;;;10.90;76.40;;;8.04;94.91;95592.47;5009788;28;20072;-68
2021/10/31 07:34:24;;;;;;;15.73;14.02;;;11.10;75.70;;;8.22;94.23;95598.09;5020639;28;20057;-67
2021/10/31 07:36:50;;;;;;;;;;;11.40;75.60;;;8.40;93.45;95601.16;4993430;28;20053;-72
2021/10/31 07:39:15;;;;;;;16.63;13.98;;;11.60;75.30;;;8.55;94.17;95594.00;5010799;28;19922;-67
2021/10/31 07:41:41;;;;;;;15.07;13.48;;;11.70;74.90;;;8.76;94.50;95595.78;5026235;28;20038;-68
2021/10/31 07:44:07;;;;;;;15.35;13.27;;;11.90;73.90;;;8.93;92.84;95596.34;5026544;28;20095;-67
2021/10/31 07:46:34;;;;;;;15.70;13.23;;;12.10;73.20;;;9.08;91.91;95593.63;5013269;28;20033;-67
2021/10/31 07:49:00;;;;;;;14.63;12.82;;;12.20;72.70;;;9.26;91.06;95593.09;5014630;28;20468;-68
2021/10/31 07:51:26;;;;;;;14.25;12.55;;;12.40;71.70;;;9.42;89.94;95584.94;5010635;28;20662;-67
2021/10/31 07:53:52;;;;;;;12.98;11.10;;;12.50;71.50;;;9.60;89.97;95584.41;5026018;28;20042;-68
2021/10/31 07:56:21;;;;;;;13.45;10.38;;;12.70;69.10;;;9.76;88.18;95584.09;5020707;28;20101;-69
2021/10/31 07:58:54;;;;;;;11.02;9.70;;;12.80;68.50;;;9.91;87.68;95578.66;5009578;28;20038;-68
2021/10/31 08:01:22;;;;;;;13.98;9.77;;;13.00;68.20;;;10.07;86.26;95578.31;5022599;28;20060;-68
2021/10/31 08:03:48;;;;;;;13.90;9.88;;;13.10;67.70;;;10.19;86.05;95575.94;5018686;28;20037;-68
2021/10/31 08:06:14;;;;;;;9.95;8.75;;;13.30;67.70;;;10.35;86.08;95572.94;5011942;28;20034;-68
2021/10/31 08:08:39;;;;;;;10.32;8.20;;;13.50;66.60;;;10.50;85.28;95565.69;5030566;28;20038;-69
2021/10/31 08:11:05;;;;;;;10.75;8.70;;;13.60;65.60;;;10.67;83.98;95563.47;5028048;28;20521;-68
2021/10/31 08:13:31;;;;;;;12.27;8.95;;;13.80;63.60;;;10.82;82.60;95566.69;4993854;28;20112;-68
2021/10/31 08:15:57;;;;;;;10.38;9.00;;;14.10;63.30;;;11.01;82.42;95563.25;4997693;28;20442;-69
2021/10/31 08:18:22;;;;;;;10.85;9.43;;;14.20;63.50;;;11.18;81.53;95562.81;5030497;28;20441;-68
2021/10/31 08:20:48;;;;;;;13.60;11.80;;;14.60;62.70;;;11.36;81.50;95560.34;5005643;28;20042;-68
2021/10/31 08:23:15;;;;;;;11.93;10.10;;;14.80;61.40;;;11.54;80.98;95563.13;5021748;28;20029;-67
2021/10/31 08:25:42;;;;;;;13.65;12.25;;;15.10;60.10;;;11.73;79.86;95557.97;5030154;28;20044;-67
2021/10/31 08:28:09;;;;;;;10.57;9.27;;;15.60;59.00;;;11.93;79.82;95556.91;5013793;28;20456;-69
2021/10/31 08:30:36;;;;;;;10.38;8.32;;;15.80;57.30;;;12.14;78.99;95553.16;5019013;28;20041;-69
2021/10/31 08:33:07;;;;;;;9.07;8.15;;;16.30;56.60;;;12.37;78.92;95546.53;5030905;28;20037;-67
2021/10/31 08:35:34;;;;;;;10.05;8.45;;;16.60;55.50;;;12.59;78.55;95539.88;4997350;28;20033;-68
2021/10/31 08:38:01;;;;;;;10.23;8.85;;;17.00;54.80;;;12.80;77.90;95536.03;5031884;28;20121;-68
2021/10/31 08:40:27;;;;;;;9.85;8.48;;;17.30;53.40;;;13.04;77.72;95527.28;5027434;28;20037;-69
2021/10/31 08:42:53;;;;;;;12.48;8.45;;;17.70;52.40;;;13.28;75.78;95523.00;5032205;28;20053;-68
2021/10/31 08:45:19;;;;;;;8.70;7.80;;;18.10;51.40;;;13.53;76.45;95515.00;5028954;28;20037;-69
2021/10/31 08:47:45;;;;;;;8.82;7.93;;;18.30;50.60;;;13.76;76.07;95506.41;5027276;28;20037;-68
2021/10/31 08:50:10;;;;;;;8.73;7.82;;;18.60;49.50;;;14.03;74.98;95514.78;4995590;28;20091;-68
2021/10/31 08:52:37;;;;;;;10.60;7.57;;;19.00;49.40;;;14.26;73.89;95506.13;5018619;28;20407;-68
2021/10/31 08:55:04;;;;;;;9.63;7.60;;;19.20;47.60;;;14.47;72.56;95497.69;4984054;28;20525;-68
2021/10/31 08:57:30;;;;;;;9.38;7.88;;;19.60;46.80;;;14.71;73.78;95485.31;5011100;28;20520;-69
2021/10/31 08:59:55;;;;;;;10.45;7.35;;;19.90;46.50;;;14.88;71.48;95480.09;5024240;28;20048;-68
2021/10/31 09:02:21;;;;;;;8.75;7.00;;;20.30;45.10;;;15.05;71.26;95483.69;5024796;28;20448;-68
2021/10/31 09:04:47;;;;;;;8.02;7.22;;;20.40;44.50;;;15.20;71.43;95473.41;5027382;28;20061;-68
2021/10/31 09:07:16;;;;;;;8.35;7.25;;;20.80;44.30;;;15.38;70.87;95468.97;5016391;28;20042;-69
2021/10/31 09:09:42;;;;;;;9.85;6.78;;;21.30;43.80;;;15.43;69.42;95458.50;5018697;28;20042;-67
2021/10/31 09:12:09;;;;;;;8.27;6.97;;;21.50;43.00;;;15.58;69.79;95458.78;4997898;28;20018;-68
2021/10/31 09:14:35;;;;;;;8.48;7.28;;;21.70;42.10;;;15.64;68.30;95454.44;5025366;28;20084;-68
2021/10/31 09:17:01;;;;;;;7.57;6.65;;;21.50;42.60;;;15.65;68.13;95453.41;4994370;28;20038;-68
2021/10/31 09:19:27;;;;;;;8.38;6.90;;;21.10;43.50;;;15.64;68.20;95443.84;5010180;28;20037;-69
2021/10/31 09:21:53;;;;;;;9.35;7.40;;;20.30;45.50;;;15.59;68.06;95442.69;5025759;28;20374;-71
2021/10/31 09:24:19;;;;;;;11.05;7.03;;;19.70;47.30;;;15.50;67.61;95444.06;5019912;28;20032;-68
2021/10/31 09:26:45;;;;;;;7.32;6.22;;;19.10;48.10;;;15.45;67.05;95443.19;5009978;28;20038;-68
2021/10/31 09:29:11;;;;;;;8.85;6.63;;;18.70;49.60;;;15.37;67.35;95441.69;5018158;28;20061;-68
2021/10/31 09:31:38;;;;;;;7.57;6.75;;;18.50;49.80;;;15.27;66.31;95436.19;5030615;28;20026;-67
2021/10/31 09:34:04;;;;;;;8.55;6.72;;;18.20;51.00;;;15.21;67.16;95437.94;5022525;28;20080;-69
2021/10/31 09:36:34;;;;;;;7.93;6.80;;;18.10;51.90;;;15.12;66.33;95431.38;5020389;28;20100;-68
2021/10/31 09:39:05;;;;;;;8.05;6.20;;;17.80;51.90;;;15.06;67.27;95429.66;5022954;28;20112;-68
2021/10/31 09:41:31;;;;;;;7.95;6.40;;;17.90;52.20;;;15.00;66.01;95425.31;5027008;28;20412;-68
2021/10/31 09:44:11;;;;;;;7.47;5.95;;;17.60;52.60;;;14.94;66.47;95421.75;5021481;28;20121;-68
2021/10/31 09:46:38;;;;;;;7.90;6.23;;;17.60;53.10;;;14.90;65.71;95419.78;5011815;28;20117;-69
2021/10/31 09:49:04;;;;;;;8.05;6.28;;;17.50;53.90;;;14.88;67.43;95411.25;5022764;28;20153;-67
2021/10/31 09:51:30;;;;;;;7.78;6.30;;;17.50;54.00;;;14.86;67.38;95408.03;5011192;28;20030;-68
2021/10/31 09:53:59;;;;;;;7.95;6.13;;;17.50;53.80;;;14.86;65.52;95405.41;5025535;28;20034;-66
2021/10/31 09:56:25;;;;;;;8.60;6.43;;;17.50;53.90;;;14.86;65.97;95405.41;4997598;28;20033;-66
2021/10/31 09:58:53;;;;;;;7.22;5.85;;;17.50;53.50;;;14.87;66.94;95393.78;5023899;28;20030;-67
2021/10/31 10:04:34;;;;;;;7.25;5.05;;;17.70;53.40;;;14.95;64.07;95390.78;5027511;28;20112;-67
2021/10/31 10:07:02;;;;;;;;;;;17.70;52.30;;;15.02;63.87;95383.50;4998686;28;20044;-67
2021/10/31 10:09:30;;;;;;;8.43;4.88;;;17.80;52.40;;;15.11;66.95;95382.09;5025237;28;20337;-66
2021/10/31 10:11:56;;;;;;;5.35;4.50;;;17.90;52.20;;;15.22;65.88;95385.75;5012028;28;20163;-66
2021/10/31 10:14:29;;;;;;;5.97;4.70;;;18.10;51.20;;;15.29;63.94;95381.13;4999443;28;20390;-67
2021/10/31 10:16:59;;;;;;;5.70;4.80;;;18.10;51.40;;;15.35;63.74;95380.16;5009972;28;20026;-67
2021/10/31 10:19:29;;;;;;;7.97;5.70;;;18.10;51.50;;;15.42;64.33;95372.91;5024793;28;20038;-67
2021/10/31 10:21:57;;;;;;;7.20;6.30;;;18.10;53.40;;;15.48;65.89;95363.19;5009924;28;20052;-67
2021/10/31 10:24:23;;;;;;;7.38;6.20;;;18.20;53.50;;;15.54;66.01;95371.00;5029132;28;20042;-66
2021/10/31 10:26:50;;;;;;;7.72;6.45;;;18.40;52.30;;;15.63;65.02;95360.84;5009824;28;20041;-66